Time;durP1;ratioP1;P1;durP2;ratioP2;P2;SDS_P1;SDS_P2;PMS_P1;PMS_P2;Temp;Humidity;BMP_temperature;BMP_pressure;BME280_temperature;BME280_humidity;BME280_pressure;Samples;Min_cycle;Max_cycle;Signal;HPM_P1;HPM_P2
2023/03/02 00:02:10;;;;;;;;;;;2.20;95.70;;;;;;5090973;28;19921;-73
2023/03/02 00:04:43;;;;;;;;;;;2.20;95.70;;;;;;5087589;28;19912;-73
2023/03/02 00:07:10;;;;;;;;;;;2.20;95.80;;;;;;5089009;28;19916;-73
2023/03/02 00:09:36;;;;;;;;;;;2.20;95.70;;;;;;5088826;28;20424;-73
2023/03/02 00:12:03;;;;;;;;;;;2.20;95.70;;;;;;5089679;28;19970;-73
2023/03/02 00:14:29;;;;;;;;;;;2.20;95.70;;;;;;5088756;28;20396;-73
2023/03/02 00:16:55;;;;;;;;;;;2.20;95.70;;;;;;5088794;28;19912;-73
2023/03/02 00:19:20;;;;;;;;;;;2.20;95.70;;;;;;5088087;28;19922;-74
2023/03/02 00:21:46;;;;;;;;;;;2.20;95.60;;;;;;5099266;28;20360;-73
2023/03/02 00:24:13;;;;;;;;;;;2.10;95.60;;;;;;5108021;28;19969;-74
2023/03/02 00:26:39;;;;;;;;;;;2.20;95.60;;;;;;5107721;28;19911;-74
2023/03/02 00:29:04;;;;;;;;;;;2.10;95.60;;;;;;5108985;28;19915;-73
2023/03/02 00:31:30;;;;;;;;;;;2.10;95.50;;;;;;5102393;27;20326;-73
2023/03/02 00:33:55;;;;;;;;;;;2.10;95.50;;;;;;5105875;28;19965;-74
2023/03/02 00:36:22;;;;;;;;;;;2.10;95.50;;;;;;5088685;28;19943;-73
2023/03/02 00:38:48;;;;;;;;;;;2.10;95.50;;;;;;5087848;28;19916;-73
2023/03/02 00:41:14;;;;;;;;;;;2.00;95.50;;;;;;5089377;28;19981;-73
2023/03/02 00:43:40;;;;;;;;;;;2.10;95.50;;;;;;5088539;28;19912;-73
2023/03/02 00:46:27;;;;;;;;;;;2.00;95.50;;;;;;5088255;28;19916;-73
2023/03/02 00:48:52;;;;;;;;;;;2.00;95.50;;;;;;5088213;28;19950;-73
2023/03/02 00:51:18;;;;;;;;;;;2.00;95.50;;;;;;5094045;28;19919;-73
2023/03/02 00:53:44;;;;;;;;;;;2.00;95.50;;;;;;5108372;28;19916;-73
2023/03/02 00:56:09;;;;;;;;;;;2.00;95.50;;;;;;5108472;28;19912;-73
2023/03/02 00:58:35;;;;;;;;;;;2.00;95.50;;;;;;5108072;28;19950;-73
2023/03/02 01:01:06;;;;;;;;;;;2.00;95.50;;;;;;5095876;28;20003;-73
2023/03/02 01:03:31;;;;;;;;;;;2.00;95.50;;;;;;5087960;28;19953;-74
2023/03/02 01:05:57;;;;;;;;;;;2.00;95.60;;;;;;5087521;28;20262;-73
2023/03/02 01:08:23;;;;;;;;;;;2.00;95.50;;;;;;5087920;28;19912;-73
2023/03/02 01:10:50;;;;;;;;;;;1.90;95.50;;;;;;5087981;28;19916;-73
2023/03/02 01:13:16;;;;;;;;;;;1.90;95.50;;;;;;5087928;28;19916;-74
2023/03/02 01:15:41;;;;;;;;;;;1.90;95.40;;;;;;5086446;28;19916;-73
2023/03/02 01:18:07;;;;;;;;;;;1.90;95.50;;;;;;5087400;28;19926;-73
2023/03/02 01:20:33;;;;;;;;;;;1.90;95.50;;;;;;5087841;28;20378;-73
2023/03/02 01:22:58;;;;;;;;;;;1.90;95.50;;;;;;5106981;28;19915;-73
2023/03/02 01:25:24;;;;;;;;;;;1.90;95.50;;;;;;5108130;28;20545;-74
2023/03/02 01:27:49;;;;;;;;;;;1.90;95.50;;;;;;5106743;28;19919;-73
2023/03/02 01:30:15;;;;;;;;;;;1.90;95.40;;;;;;5107882;28;19951;-74
2023/03/02 01:32:40;;;;;;;;;;;1.90;95.40;;;;;;5107628;28;20295;-73
2023/03/02 01:35:06;;;;;;;;;;;1.80;95.40;;;;;;5082972;28;19920;-73
2023/03/02 01:37:31;;;;;;;;;;;1.80;95.40;;;;;;5067358;28;19919;-73
2023/03/02 01:39:57;;;;;;;;;;;1.80;95.40;;;;;;5067337;28;19923;-73
2023/03/02 01:42:22;;;;;;;;;;;1.80;95.40;;;;;;5081152;28;19912;-73
2023/03/02 01:44:48;;;;;;;;;;;1.80;95.40;;;;;;5087346;28;20768;-73
2023/03/02 01:47:19;;;;;;;;;;;1.80;95.40;;;;;;5087208;28;20376;-73
2023/03/02 01:49:56;;;;;;;;;;;1.80;95.40;;;;;;5087245;28;19908;-73
2023/03/02 01:52:22;;;;;;;;;;;1.80;95.40;;;;;;5087411;28;19923;-73
2023/03/02 01:54:49;;;;;;;;;;;1.80;95.40;;;;;;5105770;28;19911;-73
2023/03/02 01:57:17;;;;;;;;;;;1.80;95.50;;;;;;5107687;28;20457;-73
2023/03/02 01:59:44;;;;;;;;;;;1.80;95.40;;;;;;5106716;28;19923;-73
2023/03/02 02:02:10;;;;;;;;;;;1.80;95.40;;;;;;5092065;28;19920;-73
2023/03/02 02:04:37;;;;;;;;;;;1.80;95.50;;;;;;5087588;28;19909;-73
2023/03/02 02:07:03;;;;;;;;;;;1.70;95.40;;;;;;5087735;28;19916;-73
2023/03/02 02:09:32;;;;;;;;;;;1.80;95.40;;;;;;5086735;28;19912;-73
2023/03/02 02:11:57;;;;;;;;;;;1.70;95.30;;;;;;5096623;28;19916;-73
2023/03/02 02:14:23;;;;;;;;;;;1.70;95.40;;;;;;5107375;28;19961;-74
2023/03/02 02:16:49;;;;;;;;;;;1.70;95.40;;;;;;5105924;28;19951;-73
2023/03/02 02:19:31;;;;;;;;;;;1.70;95.40;;;;;;5090286;28;19990;-73
2023/03/02 02:21:56;;;;;;;;;;;1.70;95.40;;;;;;5099811;28;19923;-73
2023/03/02 02:24:26;;;;;;;;;;;1.70;95.40;;;;;;5110968;28;19911;-73
2023/03/02 02:26:53;;;;;;;;;;;1.70;95.30;;;;;;5111211;28;19908;-73
2023/03/02 02:29:21;;;;;;;;;;;1.70;95.40;;;;;;5110912;28;20621;-72
2023/03/02 02:31:49;;;;;;;;;;;1.70;95.40;;;;;;5109895;28;19923;-72
2023/03/02 02:34:23;;;;;;;;;;;1.70;95.40;;;;;;5090345;28;19912;-72
2023/03/02 02:36:51;;;;;;;;;;;1.70;95.40;;;;;;5089531;28;19908;-74
2023/03/02 02:39:22;;;;;;;;;;;1.70;95.40;;;;;;5090197;28;19923;-72
2023/03/02 02:41:49;;;;;;;;;;;1.70;95.40;;;;;;5090483;28;20391;-73
2023/03/02 02:44:16;;;;;;;;;;;1.60;95.40;;;;;;5090983;28;19962;-73
2023/03/02 02:46:42;;;;;;;;;;;1.60;95.40;;;;;;5090694;28;19912;-73
2023/03/02 02:49:12;;;;;;;;;;;1.60;95.40;;;;;;5090301;28;19909;-72
2023/03/02 02:51:38;;;;;;;;;;;1.60;95.40;;;;;;5094261;28;19912;-72
2023/03/02 02:54:03;;;;;;;;;;;1.60;95.40;;;;;;5110703;28;20080;-73
2023/03/02 02:56:31;;;;;;;;;;;1.60;95.30;;;;;;5110747;28;19911;-73
2023/03/02 02:58:59;;;;;;;;;;;1.60;95.30;;;;;;5110272;28;19916;-72
2023/03/02 03:01:25;;;;;;;;;;;1.60;95.30;;;;;;5102164;28;19915;-73
2023/03/02 03:03:52;;;;;;;;;;;1.60;95.30;;;;;;5092607;28;19919;-72
2023/03/02 03:06:19;;;;;;;;;;;1.60;95.30;;;;;;5090065;28;19931;-73
2023/03/02 03:08:45;;;;;;;;;;;1.60;95.30;;;;;;5089869;28;19920;-72
2023/03/02 03:11:12;;;;;;;;;;;1.60;95.30;;;;;;5090765;28;20296;-72
2023/03/02 03:13:38;;;;;;;;;;;1.50;95.20;;;;;;5090143;28;19912;-72
2023/03/02 03:16:04;;;;;;;;;;;1.50;95.30;;;;;;5089767;28;19912;-72
2023/03/02 03:18:30;;;;;;;;;;;1.50;95.30;;;;;;5089412;28;19920;-73
2023/03/02 03:20:56;;;;;;;;;;;1.50;95.40;;;;;;5091107;28;19927;-72
2023/03/02 03:23:22;;;;;;;;;;;1.50;95.30;;;;;;5110113;28;20002;-72
2023/03/02 03:25:47;;;;;;;;;;;1.50;95.30;;;;;;5108335;28;19919;-73
2023/03/02 03:28:13;;;;;;;;;;;1.50;95.30;;;;;;5109540;28;19919;-73
2023/03/02 03:30:38;;;;;;;;;;;1.50;95.30;;;;;;5109472;27;20007;-73
2023/03/02 03:33:04;;;;;;;;;;;1.50;95.20;;;;;;5109964;28;19911;-72
2023/03/02 03:35:29;;;;;;;;;;;1.50;95.20;;;;;;5077893;28;20346;-72
2023/03/02 03:37:55;;;;;;;;;;;1.50;95.20;;;;;;5101740;28;19970;-73
2023/03/02 03:40:20;;;;;;;;;;;1.50;95.20;;;;;;5069105;28;19912;-72
2023/03/02 03:42:46;;;;;;;;;;;1.40;95.20;;;;;;5086996;28;20034;-72
2023/03/02 03:45:11;;;;;;;;;;;1.50;95.20;;;;;;5087957;28;20020;-72
2023/03/02 03:47:37;;;;;;;;;;;1.40;95.20;;;;;;5087796;28;20447;-73
2023/03/02 03:50:03;;;;;;;;;;;1.40;95.20;;;;;;5089277;28;19916;-72
2023/03/02 03:52:31;;;;;;;;;;;1.40;95.20;;;;;;5104206;28;20377;-73
2023/03/02 03:54:58;;;;;;;;;;;1.40;95.20;;;;;;5109566;28;20440;-72
2023/03/02 03:57:24;;;;;;;;;;;1.40;95.20;;;;;;5109457;28;19912;-72
2023/03/02 03:59:49;;;;;;;;;;;1.40;95.20;;;;;;5107523;28;19923;-72
2023/03/02 04:02:15;;;;;;;;;;;1.40;95.10;;;;;;5096927;28;19912;-72
2023/03/02 04:04:41;;;;;;;;;;;1.40;95.20;;;;;;5088889;28;19916;-73
2023/03/02 04:07:06;;;;;;;;;;;1.40;95.10;;;;;;5088762;28;19919;-72
2023/03/02 04:09:36;;;;;;;;;;;1.40;95.10;;;;;;5088525;28;19908;-73
2023/03/02 04:12:02;;;;;;;;;;;1.40;95.10;;;;;;5089107;28;19923;-72
2023/03/02 04:14:28;;;;;;;;;;;1.40;95.10;;;;;;5088685;28;19916;-72
2023/03/02 04:16:54;;;;;;;;;;;1.40;95.10;;;;;;5088593;28;19923;-72
2023/03/02 04:19:20;;;;;;;;;;;1.40;95.10;;;;;;5088338;28;20368;-73
2023/03/02 04:21:47;;;;;;;;;;;1.40;95.10;;;;;;5094688;28;19916;-73
2023/03/02 04:24:16;;;;;;;;;;;1.30;95.00;;;;;;5108572;28;19914;-72
2023/03/02 04:26:42;;;;;;;;;;;1.30;95.00;;;;;;5108797;28;19912;-73
2023/03/02 04:29:07;;;;;;;;;;;1.30;95.10;;;;;;5108500;28;19934;-73
2023/03/02 04:31:33;;;;;;;;;;;1.30;95.10;;;;;;5108061;28;19923;-72
2023/03/02 04:33:59;;;;;;;;;;;1.30;95.10;;;;;;5105051;28;20398;-73
2023/03/02 04:36:25;;;;;;;;;;;1.30;95.10;;;;;;5088411;28;19919;-72
2023/03/02 04:38:50;;;;;;;;;;;1.30;95.10;;;;;;5088218;28;20285;-73
2023/03/02 04:41:16;;;;;;;;;;;1.30;95.10;;;;;;5088509;28;19916;-73
2023/03/02 04:43:42;;;;;;;;;;;1.30;95.10;;;;;;5108579;28;19912;-73
2023/03/02 04:46:08;;;;;;;;;;;1.30;95.10;;;;;;5108325;28;19915;-72
2023/03/02 04:48:34;;;;;;;;;;;1.30;95.10;;;;;;5091818;28;19916;-72
2023/03/02 04:50:59;;;;;;;;;;;1.30;95.10;;;;;;5088498;28;19914;-72
2023/03/02 04:53:25;;;;;;;;;;;1.30;95.10;;;;;;5108386;28;19990;-72
2023/03/02 04:55:50;;;;;;;;;;;1.30;95.10;;;;;;5108290;28;19916;-72
2023/03/02 04:58:16;;;;;;;;;;;1.30;95.10;;;;;;5108303;28;20328;-72
2023/03/02 05:00:41;;;;;;;;;;;1.30;95.10;;;;;;5099383;28;19920;-72
2023/03/02 05:03:07;;;;;;;;;;;1.30;95.10;;;;;;5092540;28;19966;-73
2023/03/02 05:05:32;;;;;;;;;;;1.20;95.00;;;;;;5087870;28;20330;-72
2023/03/02 05:07:58;;;;;;;;;;;1.20;95.00;;;;;;5087814;28;19908;-72
2023/03/02 05:10:25;;;;;;;;;;;1.30;95.00;;;;;;5087536;28;19912;-72
2023/03/02 05:12:54;;;;;;;;;;;1.20;95.00;;;;;;5103391;28;19911;-73
2023/03/02 05:15:20;;;;;;;;;;;1.20;95.00;;;;;;5107952;28;19912;-72
2023/03/02 05:17:46;;;;;;;;;;;1.20;95.00;;;;;;5096401;28;19992;-72
2023/03/02 05:20:11;;;;;;;;;;;1.20;95.00;;;;;;5086166;28;20323;-72
2023/03/02 05:22:37;;;;;;;;;;;1.20;95.00;;;;;;5101297;28;19923;-72
2023/03/02 05:25:03;;;;;;;;;;;1.20;95.00;;;;;;5107689;28;19912;-72
2023/03/02 05:27:28;;;;;;;;;;;1.20;95.00;;;;;;5106354;28;19989;-72
2023/03/02 05:29:54;;;;;;;;;;;1.20;95.00;;;;;;5107951;28;19916;-72
2023/03/02 05:32:19;;;;;;;;;;;1.20;95.00;;;;;;5107506;28;20645;-72
2023/03/02 05:34:45;;;;;;;;;;;1.20;95.00;;;;;;5097931;28;20361;-72
2023/03/02 05:37:10;;;;;;;;;;;1.20;95.00;;;;;;5087523;28;19919;-72
2023/03/02 05:39:36;;;;;;;;;;;1.20;95.00;;;;;;5087091;28;19923;-72
2023/03/02 05:42:02;;;;;;;;;;;1.10;95.00;;;;;;5091504;28;20393;-72
2023/03/02 05:44:27;;;;;;;;;;;1.10;95.00;;;;;;5107245;28;19908;-72
2023/03/02 05:46:53;;;;;;;;;;;1.10;95.30;;;;;;5103751;28;19912;-73
2023/03/02 05:49:18;;;;;;;;;;;1.10;95.00;;;;;;5086962;28;19916;-72
2023/03/02 05:51:44;;;;;;;;;;;1.10;95.00;;;;;;5094199;28;20376;-72
2023/03/02 05:54:09;;;;;;;;;;;1.10;95.00;;;;;;5111627;28;19912;-72
2023/03/02 05:56:35;;;;;;;;;;;1.10;95.00;;;;;;5111687;28;19911;-72
2023/03/02 05:59:00;;;;;;;;;;;1.10;95.00;;;;;;5111198;28;19916;-72
2023/03/02 06:01:26;;;;;;;;;;;1.10;95.00;;;;;;5098544;27;19965;-72
2023/03/02 06:03:51;;;;;;;;;;;1.10;95.00;;;;;;5092940;28;19912;-73
2023/03/02 06:06:17;;;;;;;;;;;1.10;95.00;;;;;;5093898;28;20385;-73
2023/03/02 06:08:42;;;;;;;;;;;1.10;95.00;;;;;;5109711;28;20053;-73
2023/03/02 06:11:08;;;;;;;;;;;1.10;95.00;;;;;;5107676;28;19912;-73
2023/03/02 06:13:34;;;;;;;;;;;1.10;95.00;;;;;;5090896;28;19922;-73
2023/03/02 06:15:59;;;;;;;;;;;1.10;94.90;;;;;;5090673;28;19965;-72
2023/03/02 06:18:25;;;;;;;;;;;1.10;95.00;;;;;;5094990;28;20424;-72
2023/03/02 06:20:50;;;;;;;;;;;1.10;94.90;;;;;;5090428;28;19923;-72
2023/03/02 06:23:16;;;;;;;;;;;1.10;94.90;;;;;;5092458;28;20324;-72
2023/03/02 06:25:47;;;;;;;;;;;1.10;94.90;;;;;;5089494;28;19912;-72
2023/03/02 06:28:13;;;;;;;;;;;1.10;94.90;;;;;;5108544;28;20002;-72
2023/03/02 06:30:38;;;;;;;;;;;1.10;94.90;;;;;;5111097;28;19915;-72
2023/03/02 06:33:04;;;;;;;;;;;1.10;94.90;;;;;;5111253;28;19912;-72
2023/03/02 06:35:29;;;;;;;;;;;1.10;94.90;;;;;;5094996;28;19908;-72
2023/03/02 06:37:55;;;;;;;;;;;1.10;94.90;;;;;;5105607;28;19991;-73
2023/03/02 06:40:20;;;;;;;;;;;1.10;94.80;;;;;;5094306;28;19971;-72
2023/03/02 06:42:46;;;;;;;;;;;1.10;94.80;;;;;;5090570;28;19919;-72
2023/03/02 06:45:11;;;;;;;;;;;1.10;94.80;;;;;;5090282;28;19943;-72
2023/03/02 06:47:37;;;;;;;;;;;1.10;94.90;;;;;;5094232;28;19963;-72
2023/03/02 06:50:03;;;;;;;;;;;1.10;94.90;;;;;;5090440;28;20366;-72
2023/03/02 06:52:29;;;;;;;;;;;1.10;94.90;;;;;;5090421;28;19989;-72
2023/03/02 06:54:54;;;;;;;;;;;1.10;95.10;;;;;;5109768;28;19912;-72
2023/03/02 06:57:20;;;;;;;;;;;1.10;94.80;;;;;;5098094;28;19976;-73
2023/03/02 06:59:45;;;;;;;;;;;1.10;94.80;;;;;;5089240;28;20035;-72
2023/03/02 07:02:11;;;;;;;;;;;1.10;94.80;;;;;;5089701;28;19946;-72
2023/03/02 07:04:36;;;;;;;;;;;1.10;94.80;;;;;;5089089;28;20337;-72
2023/03/02 07:07:02;;;;;;;;;;;1.10;94.80;;;;;;5097315;28;19916;-72
2023/03/02 07:09:29;;;;;;;;;;;1.10;94.80;;;;;;5110375;28;19911;-72
2023/03/02 07:11:55;;;;;;;;;;;1.10;94.80;;;;;;5108100;28;19958;-72
2023/03/02 07:14:21;;;;;;;;;;;1.10;94.80;;;;;;5110320;28;19939;-72
2023/03/02 07:16:46;;;;;;;;;;;1.10;94.80;;;;;;5107254;28;19912;-72
2023/03/02 07:19:14;;;;;;;;;;;1.20;94.90;;;;;;5089573;28;19927;-73
2023/03/02 07:21:40;;;;;;;;;;;1.10;94.80;;;;;;5096723;28;19924;-72
2023/03/02 07:24:06;;;;;;;;;;;1.20;94.80;;;;;;5109605;28;20020;-72
2023/03/02 07:26:31;;;;;;;;;;;1.20;94.80;;;;;;5110269;28;19912;-72
2023/03/02 07:28:59;;;;;;;;;;;1.20;94.80;;;;;;5109859;28;19954;-72
2023/03/02 07:31:25;;;;;;;;;;;1.20;94.80;;;;;;5106012;28;19975;-72
2023/03/02 07:33:51;;;;;;;;;;;1.20;94.80;;;;;;5089359;28;20029;-72
2023/03/02 07:36:16;;;;;;;;;;;1.20;94.80;;;;;;5089390;28;19965;-72
2023/03/02 07:38:42;;;;;;;;;;;1.20;94.80;;;;;;5087624;28;19951;-72
2023/03/02 07:41:08;;;;;;;;;;;1.20;94.80;;;;;;5089411;28;19915;-73
2023/03/02 07:43:35;;;;;;;;;;;1.20;94.80;;;;;;5109592;28;19908;-72
2023/03/02 07:46:01;;;;;;;;;;;1.20;94.80;;;;;;5109594;28;20003;-72
2023/03/02 07:48:26;;;;;;;;;;;1.30;94.80;;;;;;5094061;27;20429;-72
2023/03/02 07:50:56;;;;;;;;;;;1.20;94.70;;;;;;5089283;28;19912;-72
2023/03/02 07:53:21;;;;;;;;;;;1.30;94.80;;;;;;5109155;28;19916;-72
2023/03/02 07:55:47;;;;;;;;;;;1.30;94.80;;;;;;5109263;28;19912;-73
2023/03/02 07:58:12;;;;;;;;;;;1.30;94.80;;;;;;5109362;28;19907;-72
2023/03/02 08:00:38;;;;;;;;;;;1.30;94.70;;;;;;5099436;28;19912;-72
2023/03/02 08:03:03;;;;;;;;;;;1.30;94.70;;;;;;5094698;28;20031;-72
2023/03/02 08:05:29;;;;;;;;;;;1.40;94.70;;;;;;5089035;28;19934;-72
2023/03/02 08:07:55;;;;;;;;;;;1.40;94.80;;;;;;5088702;28;20374;-72
2023/03/02 08:10:21;;;;;;;;;;;1.40;94.60;;;;;;5096531;28;19916;-72
2023/03/02 08:12:47;;;;;;;;;;;1.40;94.70;;;;;;5091457;28;19943;-72
2023/03/02 08:15:12;;;;;;;;;;;1.40;94.70;;;;;;5101198;28;20575;-72
2023/03/02 08:17:38;;;;;;;;;;;1.40;94.70;;;;;;5100121;28;19916;-72
2023/03/02 08:20:04;;;;;;;;;;;1.50;94.70;;;;;;5088621;28;20308;-72
2023/03/02 08:22:30;;;;;;;;;;;1.50;94.70;;;;;;5088359;28;19912;-73
2023/03/02 08:24:55;;;;;;;;;;;1.50;94.60;;;;;;5107458;28;19916;-73
2023/03/02 08:27:21;;;;;;;;;;;1.50;94.60;;;;;;5108556;28;19919;-72
2023/03/02 08:29:46;;;;;;;;;;;1.50;94.60;;;;;;5107161;28;19912;-72
2023/03/02 08:32:12;;;;;;;;;;;1.50;94.60;;;;;;5108753;28;19923;-72
2023/03/02 08:34:37;;;;;;;;;;;1.60;94.60;;;;;;5105752;28;19912;-72
2023/03/02 08:37:03;;;;;;;;;;;1.60;94.60;;;;;;5108514;28;19920;-72
2023/03/02 08:39:30;;;;;;;;;;;1.70;94.60;;;;;;5106577;28;19916;-72
2023/03/02 08:41:55;;;;;;;;;;;1.60;94.60;;;;;;5098086;28;20011;-72
2023/03/02 08:44:21;;;;;;;;;;;1.70;94.70;;;;;;5092505;28;20460;-72
2023/03/02 08:46:47;;;;;;;;;;;1.70;94.70;;;;;;5107095;28;19922;-72
2023/03/02 08:49:13;;;;;;;;;;;1.70;94.80;;;;;;5087915;28;19912;-73
2023/03/02 08:51:39;;;;;;;;;;;1.80;94.70;;;;;;5088000;28;19986;-73
2023/03/02 08:54:04;;;;;;;;;;;1.80;94.60;;;;;;5100055;28;19912;-73
2023/03/02 08:56:34;;;;;;;;;;;1.90;94.50;;;;;;5108416;27;19922;-72
2023/03/02 08:59:01;;;;;;;;;;;1.90;94.50;;;;;;5108028;28;19973;-72
2023/03/02 09:01:28;;;;;;;;;;;2.00;94.50;;;;;;5092762;28;19912;-72
2023/03/02 09:03:54;;;;;;;;;;;2.00;94.50;;;;;;5087804;28;19922;-72
2023/03/02 09:06:20;;;;;;;;;;;2.00;94.50;;;;;;5088667;28;19916;-72
2023/03/02 09:08:46;;;;;;;;;;;2.10;94.40;;;;;;5087282;28;20638;-72
2023/03/02 09:11:11;;;;;;;;;;;2.10;94.30;;;;;;5087737;28;19912;-73
2023/03/02 09:13:37;;;;;;;;;;;2.20;94.30;;;;;;5087571;28;19920;-73
2023/03/02 09:16:03;;;;;;;;;;;2.20;94.30;;;;;;5105203;28;19989;-72
2023/03/02 09:18:29;;;;;;;;;;;2.20;94.20;;;;;;5091903;28;20780;-72
2023/03/02 09:20:58;;;;;;;;;;;2.30;94.20;;;;;;5087547;28;19915;-73
2023/03/02 09:23:24;;;;;;;;;;;2.30;94.20;;;;;;5094570;28;20648;-73
2023/03/02 09:25:50;;;;;;;;;;;2.40;94.30;;;;;;5106807;28;20391;-72
2023/03/02 09:28:16;;;;;;;;;;;2.40;94.10;;;;;;5106273;28;19913;-72
2023/03/02 09:30:46;;;;;;;;;;;2.40;94.20;;;;;;5106088;28;19916;-72
2023/03/02 09:33:12;;;;;;;;;;;2.40;94.00;;;;;;5107736;28;19912;-73
2023/03/02 09:35:37;;;;;;;;;;;2.40;94.10;;;;;;5104116;28;19919;-73
2023/03/02 09:38:03;;;;;;;;;;;2.40;94.10;;;;;;5107105;28;19908;-72
2023/03/02 09:40:30;;;;;;;;;;;2.50;94.10;;;;;;5106854;28;20598;-73
2023/03/02 09:42:58;;;;;;;;;;;2.50;94.10;;;;;;5088409;28;19915;-73
2023/03/02 09:45:31;;;;;;;;;;;2.50;94.10;;;;;;5097698;28;20686;-72
2023/03/02 09:47:56;;;;;;;;;;;2.50;94.00;;;;;;5095408;28;19912;-73
2023/03/02 09:50:22;;;;;;;;;;;2.50;94.10;;;;;;5086684;28;20540;-72
2023/03/02 09:52:57;;;;;;;;;;;2.60;94.10;;;;;;5088351;28;20004;-72
2023/03/02 09:55:25;;;;;;;;;;;2.60;94.00;;;;;;5105924;28;20381;-73
2023/03/02 09:57:51;;;;;;;;;;;2.60;94.00;;;;;;5106450;28;19912;-73
2023/03/02 10:00:22;;;;;;;;;;;2.60;93.90;;;;;;5101139;28;20041;-73
2023/03/02 10:02:49;;;;;;;;;;;2.60;93.90;;;;;;5086068;28;19916;-73
2023/03/02 10:05:20;;;;;;;;;;;2.70;94.00;;;;;;5095638;28;19915;-73
2023/03/02 10:07:46;;;;;;;;;;;2.70;94.00;;;;;;5106418;28;19911;-73
2023/03/02 10:10:12;;;;;;;;;;;2.70;94.00;;;;;;5106203;28;19912;-73
2023/03/02 10:12:43;;;;;;;;;;;2.70;94.00;;;;;;5090437;28;19986;-73
2023/03/02 10:15:27;;;;;;;;;;;2.70;94.10;;;;;;5093484;28;20279;-73
2023/03/02 10:18:01;;;;;;;;;;;2.70;94.00;;;;;;5088770;28;19920;-73
2023/03/02 10:20:30;;;;;;;;;;;2.80;94.00;;;;;;5086316;28;19977;-73
2023/03/02 10:23:00;;;;;;;;;;;2.80;94.00;;;;;;5089411;28;20368;-73
2023/03/02 10:25:48;;;;;;;;;;;2.80;94.00;;;;;;5104472;28;20429;-73
2023/03/02 10:28:16;;;;;;;;;;;2.80;94.00;;;;;;5096627;28;19919;-73
2023/03/02 10:30:41;;;;;;;;;;;2.80;94.00;;;;;;5106596;28;19951;-73
2023/03/02 10:33:17;;;;;;;;;;;2.90;94.00;;;;;;5106671;28;20443;-73
2023/03/02 10:35:45;;;;;;;;;;;2.90;94.00;;;;;;5089558;28;19969;-73
2023/03/02 10:38:15;;;;;;;;;;;2.90;94.10;;;;;;5103416;28;20389;-73
2023/03/02 10:40:48;;;;;;;;;;;2.90;94.10;;;;;;5110012;28;19915;-73
2023/03/02 10:43:16;;;;;;;;;;;3.00;94.10;;;;;;5069613;28;19912;-73
2023/03/02 10:45:42;;;;;;;;;;;3.00;94.10;;;;;;5088996;28;19966;-73
2023/03/02 10:48:09;;;;;;;;;;;3.00;94.10;;;;;;5090777;28;19981;-73
2023/03/02 10:50:35;;;;;;;;;;;3.00;94.10;;;;;;5089607;28;19916;-73
2023/03/02 10:53:01;;;;;;;;;;;3.10;94.10;;;;;;5093382;28;19968;-73
2023/03/02 10:55:26;;;;;;;;;;;3.10;94.10;;;;;;5109106;28;19916;-73
2023/03/02 10:58:05;;;;;;;;;;;3.10;94.20;;;;;;5109320;27;19916;-73
2023/03/02 11:00:33;;;;;;;;;;;3.20;94.10;;;;;;5102169;28;20625;-73
2023/03/02 11:03:03;;;;;;;;;;;3.20;94.10;;;;;;5089174;28;19908;-73
2023/03/02 11:05:28;;;;;;;;;;;3.30;94.30;;;;;;5098058;28;19962;-73
2023/03/02 11:07:57;;;;;;;;;;;3.30;94.20;;;;;;5109342;28;19947;-73
2023/03/02 11:10:24;;;;;;;;;;;3.40;94.30;;;;;;5095544;28;19909;-73
2023/03/02 11:12:51;;;;;;;;;;;3.40;94.20;;;;;;5087788;28;19919;-73
2023/03/02 11:15:19;;;;;;;;;;;3.50;94.10;;;;;;5096552;28;19915;-74
2023/03/02 11:17:47;;;;;;;;;;;3.60;94.00;;;;;;5098419;28;20327;-73
2023/03/02 11:20:15;;;;;;;;;;;3.70;94.10;;;;;;5089137;28;19951;-74
2023/03/02 11:22:44;;;;;;;;;;;3.80;93.80;;;;;;5089837;28;19908;-74
2023/03/02 11:25:20;;;;;;;;;;;3.80;93.50;;;;;;5108223;28;19990;-74
2023/03/02 11:27:49;;;;;;;;;;;3.90;93.60;;;;;;5109050;27;19951;-73
2023/03/02 11:30:17;;;;;;;;;;;4.00;93.60;;;;;;5109073;28;19918;-74
2023/03/02 11:32:46;;;;;;;;;;;4.00;93.60;;;;;;5109944;28;19957;-73
2023/03/02 11:35:13;;;;;;;;;;;4.10;93.70;;;;;;5096287;28;20502;-73
2023/03/02 11:37:39;;;;;;;;;;;4.20;93.70;;;;;;5087680;28;19919;-74
2023/03/02 11:40:05;;;;;;;;;;;4.30;94.10;;;;;;5089667;28;19920;-74
2023/03/02 11:42:36;;;;;;;;;;;4.30;94.20;;;;;;5072760;28;19919;-73
2023/03/02 11:45:05;;;;;;;;;;;4.40;94.00;;;;;;5108235;28;19953;-73
2023/03/02 11:47:31;;;;;;;;;;;4.50;94.00;;;;;;5101912;28;19908;-74
2023/03/02 11:49:59;;;;;;;;;;;4.60;93.80;;;;;;5087576;28;19912;-74
2023/03/02 11:52:27;;;;;;;;;;;4.70;93.60;;;;;;5088824;28;20563;-74
2023/03/02 11:54:54;;;;;;;;;;;4.80;93.60;;;;;;5107515;28;19911;-74
2023/03/02 11:57:29;;;;;;;;;;;4.90;93.30;;;;;;5095998;28;20038;-74
2023/03/02 11:59:55;;;;;;;;;;;5.00;93.40;;;;;;5087900;28;19962;-74
2023/03/02 12:02:21;;;;;;;;;;;5.10;93.20;;;;;;5087077;28;19999;-74
2023/03/02 12:04:46;;;;;;;;;;;5.20;93.00;;;;;;5087780;28;20658;-73
2023/03/02 12:07:18;;;;;;;;;;;5.30;93.10;;;;;;5085518;28;19916;-74
2023/03/02 12:09:43;;;;;;;;;;;5.40;93.10;;;;;;5078812;28;19912;-74
2023/03/02 12:12:18;;;;;;;;;;;5.50;93.60;;;;;;5088057;28;19916;-75
2023/03/02 12:14:43;;;;;;;;;;;5.60;93.30;;;;;;5072313;28;20011;-74
2023/03/02 12:17:24;;;;;;;;;;;5.60;93.40;;;;;;5085768;28;20018;-74
2023/03/02 12:19:51;;;;;;;;;;;5.70;93.40;;;;;;5083246;28;19923;-75
2023/03/02 12:22:30;;;;;;;;;;;5.80;93.80;;;;;;5086260;28;20436;-74
2023/03/02 12:25:19;;;;;;;;;;;5.80;93.40;;;;;;5098038;28;20125;-74
2023/03/02 12:27:46;;;;;;;;;;;5.90;93.80;;;;;;5093369;28;19912;-75
2023/03/02 12:30:14;;;;;;;;;;;6.00;93.90;;;;;;5108147;28;19922;-75
2023/03/02 12:32:40;;;;;;;;;;;6.10;94.00;;;;;;5107348;28;19964;-74
2023/03/02 12:35:05;;;;;;;;;;;6.10;94.10;;;;;;5087871;28;19912;-74
2023/03/02 12:37:40;;;;;;;;;;;6.20;94.00;;;;;;5087720;28;19912;-74
2023/03/02 12:40:06;;;;;;;;;;;6.30;94.10;;;;;;5086162;28;19916;-74
2023/03/02 12:42:31;;;;;;;;;;;6.30;94.10;;;;;;5072337;28;20483;-75
2023/03/02 12:45:12;;;;;;;;;;;6.40;94.40;;;;;;5086510;28;19916;-74
2023/03/02 12:47:40;;;;;;;;;;;6.40;94.40;;;;;;5107070;28;19916;-74
2023/03/02 12:50:15;;;;;;;;;;;6.50;94.30;;;;;;5096575;28;19915;-75
2023/03/02 12:52:41;;;;;;;;;;;6.60;94.60;;;;;;5087392;28;19919;-75
2023/03/02 12:55:15;;;;;;;;;;;6.60;94.50;;;;;;5108044;28;19912;-75
2023/03/02 12:58:06;;;;;;;;;;;6.70;94.60;;;;;;5107981;28;19919;-75
2023/03/02 13:00:33;;;;;;;;;;;6.70;95.10;;;;;;5098170;28;19920;-74
2023/03/02 13:03:00;;;;;;;;;;;6.80;94.80;;;;;;5087445;28;20360;-75
2023/03/02 13:05:28;;;;;;;;;;;6.80;94.80;;;;;;5087177;28;19916;-75
2023/03/02 13:07:59;;;;;;;;;;;6.90;95.10;;;;;;5087307;28;19959;-75
2023/03/02 13:10:24;;;;;;;;;;;6.90;95.20;;;;;;5086686;28;19911;-75
2023/03/02 13:12:50;;;;;;;;;;;6.90;95.80;;;;;;5087151;28;20260;-75
2023/03/02 13:15:16;;;;;;;;;;;7.00;95.50;;;;;;5087517;28;19923;-75
2023/03/02 13:17:42;;;;;;;;;;;7.00;95.80;;;;;;5106714;28;20026;-75
2023/03/02 13:20:09;;;;;;;;;;;7.00;96.00;;;;;;5090836;28;19958;-75
2023/03/02 13:22:37;;;;;;;;;;;7.10;96.20;;;;;;5086820;28;20295;-75
2023/03/02 13:25:04;;;;;;;;;;;7.10;96.10;;;;;;5107766;28;19946;-75
2023/03/02 13:27:32;;;;;;;;;;;7.10;95.80;;;;;;5107517;28;19912;-76
2023/03/02 13:30:09;;;;;;;;;;;7.20;96.10;;;;;;5107679;28;20356;-76
2023/03/02 13:32:38;;;;;;;;;;;7.20;96.40;;;;;;5096811;28;19919;-76
2023/03/02 13:35:13;;;;;;;;;;;7.20;96.20;;;;;;5087598;28;19916;-75
2023/03/02 13:37:42;;;;;;;;;;;7.20;96.20;;;;;;5087125;28;19912;-76
2023/03/02 13:40:34;;;;;;;;;;;7.30;96.00;;;;;;5087286;28;20320;-75
2023/03/02 13:42:59;;;;;;;;;;;7.30;96.00;;;;;;5084662;28;19912;-75
2023/03/02 13:45:26;;;;;;;;;;;7.40;97.00;;;;;;5087286;28;20649;-76
2023/03/02 13:47:53;;;;;;;;;;;7.40;97.00;;;;;;5107566;28;19911;-75
2023/03/02 13:50:23;;;;;;;;;;;7.40;97.10;;;;;;5093656;28;19908;-75
2023/03/02 13:52:49;;;;;;;;;;;7.40;97.20;;;;;;5089215;28;19909;-76
2023/03/02 13:55:18;;;;;;;;;;;7.50;97.30;;;;;;5107559;28;19911;-76
2023/03/02 13:57:44;;;;;;;;;;;7.50;97.20;;;;;;5107267;28;19916;-76
2023/03/02 14:00:21;;;;;;;;;;;7.50;97.40;;;;;;5106100;28;19916;-76
2023/03/02 14:02:47;;;;;;;;;;;7.50;97.00;;;;;;5095207;28;19922;-76
2023/03/02 14:05:17;;;;;;;;;;;7.60;97.30;;;;;;5105831;28;19915;-76
2023/03/02 14:07:43;;;;;;;;;;;7.60;97.10;;;;;;5107246;28;19907;-76
2023/03/02 14:10:09;;;;;;;;;;;7.60;96.80;;;;;;5091739;28;20699;-76
2023/03/02 14:12:35;;;;;;;;;;;7.60;97.40;;;;;;5088553;28;19912;-76
2023/03/02 14:15:01;;;;;;;;;;;7.70;97.10;;;;;;5090834;28;20634;-76
2023/03/02 14:17:27;;;;;;;;;;;7.70;97.50;;;;;;5090639;28;19923;-76
2023/03/02 14:19:54;;;;;;;;;;;7.70;97.20;;;;;;5098376;28;19916;-76
2023/03/02 14:22:20;;;;;;;;;;;7.70;97.50;;;;;;5110892;28;20010;-76
2023/03/02 14:24:45;;;;;;;;;;;7.70;97.60;;;;;;5108701;28;19908;-76
2023/03/02 14:27:13;;;;;;;;;;;7.70;97.70;;;;;;5090469;28;20357;-76
2023/03/02 14:29:38;;;;;;;;;;;7.70;97.50;;;;;;5098700;28;19923;-76
2023/03/02 14:32:05;;;;;;;;;;;7.70;96.90;;;;;;5111091;27;19912;-76